Time;durP1;ratioP1;P1;durP2;ratioP2;P2;SDS_P1;SDS_P2;PMS_P1;PMS_P2;Temp;Humidity;BMP_temperature;BMP_pressure;BME280_temperature;BME280_humidity;BME280_pressure;Samples;Min_cycle;Max_cycle;Signal;HPM_P1;HPM_P2
2022/08/26 00:00:46;;;;;;;80.25;76.63;;;;;;;22.37;89.61;101394.31;5077590;28;20442;-73
2022/08/26 00:03:12;;;;;;;82.47;78.85;;;;;;;22.36;90.48;101392.66;5076604;28;20028;-73
2022/08/26 00:05:39;;;;;;;78.43;75.05;;;;;;;22.18;89.47;101377.22;5081269;28;20408;-73
2022/08/26 00:08:05;;;;;;;90.32;86.47;;;;;;;22.30;90.69;101397.03;5036314;28;20069;-73
2022/08/26 00:10:31;;;;;;;85.03;81.20;;;;;;;22.20;89.13;101391.25;5077151;28;20040;-73
2022/08/26 00:12:57;;;;;;;79.85;76.07;;;;;;;22.09;88.54;101371.25;5069017;28;20028;-73
2022/08/26 00:15:23;;;;;;;77.03;73.55;;;;;;;22.18;88.80;101398.72;5079868;28;20032;-73
2022/08/26 00:17:49;;;;;;;80.63;76.90;;;;;;;22.20;89.30;101404.72;5075184;28;20412;-73
2022/08/26 00:20:19;;;;;;;70.05;66.95;;;;;;;22.15;89.48;101402.66;5078668;28;20040;-73
2022/08/26 00:22:44;;;;;;;90.13;85.82;;;;;;;22.15;91.47;101410.72;5073494;28;20025;-73
2022/08/26 00:25:11;;;;;;;92.53;88.28;;;;;;;22.14;92.47;101405.56;5077607;28;20048;-73
2022/08/26 00:27:37;;;;;;;92.25;87.65;;;;;;;22.06;93.86;101406.63;5080827;28;20039;-73
2022/08/26 00:30:08;;;;;;;91.45;87.28;;;;;;;22.04;94.18;101406.03;5077939;28;20020;-73
2022/08/26 00:32:34;;;;;;;97.32;92.85;;;;;;;22.02;95.42;101405.41;5075208;28;20493;-73
2022/08/26 00:35:00;;;;;;;103.88;99.00;;;;;;;21.92;96.66;101392.41;5082268;28;20021;-73
2022/08/26 00:37:26;;;;;;;103.90;99.18;;;;;;;21.89;97.22;101408.97;5078357;28;20054;-73
2022/08/26 00:39:51;;;;;;;104.28;99.55;;;;;;;21.85;97.81;101401.53;5074819;28;20098;-73
2022/08/26 00:42:17;;;;;;;101.90;97.10;;;;;;;21.83;96.49;101398.22;5074272;28;20366;-73
2022/08/26 00:44:43;;;;;;;96.55;92.32;;;;;;;21.76;97.64;101400.94;5069161;28;20194;-73
2022/08/26 00:47:19;;;;;;;95.65;91.45;;;;;;;21.64;98.02;101383.81;5074488;28;20133;-73
2022/08/26 00:49:46;;;;;;;98.20;93.57;;;;;;;21.54;98.62;101374.31;5078201;28;20024;-73
2022/08/26 00:52:15;;;;;;;97.03;92.53;;;;;;;21.77;98.49;101400.72;5079989;28;20518;-73
2022/08/26 00:54:47;;;;;;;96.43;92.13;;;;;;;21.74;97.58;101401.13;5076524;28;20017;-73
2022/08/26 00:57:16;;;;;;;93.10;88.50;;;;;;;21.73;98.03;101410.25;5079185;28;20020;-73
2022/08/26 00:59:50;;;;;;;98.53;94.13;;;;;;;21.77;100.00;101406.09;5075797;28;20032;-73
2022/08/26 01:02:15;;;;;;;103.10;98.32;;;;;;;21.63;100.00;101395.59;5074777;28;20050;-72
2022/08/26 01:04:42;;;;;;;98.80;94.32;;;;;;;21.78;100.00;101410.44;5054597;28;20055;-73
2022/08/26 01:07:07;;;;;;;105.88;101.05;;;;;;;21.76;100.00;101417.06;5072190;28;20492;-72
2022/08/26 01:09:33;;;;;;;101.75;96.78;;;;;;;21.65;100.00;101391.66;5084108;28;20134;-72
2022/08/26 01:12:01;;;;;;;106.32;101.65;;;;;;;21.71;100.00;101412.31;5076115;28;20122;-72
2022/08/26 01:14:31;;;;;;;103.97;99.18;;;;;;;21.69;100.00;101419.75;5077199;28;20016;-72
2022/08/26 01:16:57;;;;;;;96.68;92.28;;;;;;;21.64;100.00;101405.28;5074511;28;20028;-72
2022/08/26 01:19:43;;;;;;;99.30;94.78;;;;;;;21.65;100.00;101406.97;5075054;28;20077;-72
2022/08/26 01:22:18;;;;;;;98.97;94.63;;;;;;;21.60;100.00;101406.75;5074887;28;20016;-72
2022/08/26 01:24:45;;;;;;;99.10;94.53;;;;;;;21.60;100.00;101410.28;5074746;28;20530;-72
2022/08/26 01:27:14;;;;;;;101.68;97.28;;;;;;;21.53;100.00;101393.31;5071679;28;20028;-72
2022/08/26 01:29:41;;;;;;;103.93;98.90;;;;;;;21.55;100.00;101407.38;5067828;28;20032;-73
2022/08/26 01:32:13;;;;;;;105.70;100.68;;;;;;;21.45;100.00;101394.38;5078056;28;20058;-73
2022/08/26 01:34:39;;;;;;;96.25;91.38;;;;;;;21.45;100.00;101390.84;5080523;28;20058;-73
2022/08/26 01:37:17;;;;;;;95.10;90.65;;;;;;;21.50;100.00;101397.25;5069412;28;20385;-73
2022/08/26 01:39:46;;;;;;;98.57;93.50;;;;;;;21.44;100.00;101395.41;5079277;28;20499;-73
2022/08/26 01:42:13;;;;;;;97.38;92.72;;;;;;;21.49;100.00;101402.84;5070925;28;20021;-73
2022/08/26 01:44:44;;;;;;;94.95;90.05;;;;;;;21.47;100.00;101395.00;5069559;28;20048;-73
2022/08/26 01:47:10;;;;;;;;;;;;;;;21.47;100.00;101404.91;5078006;28;20078;-73
2022/08/26 01:49:36;;;;;;;99.97;95.32;;;;;;;21.33;100.00;101391.47;5070536;28;19956;-73
2022/08/26 01:52:05;;;;;;;94.20;90.03;;;;;;;21.44;100.00;101410.69;5083002;28;20027;-73
2022/08/26 01:54:31;;;;;;;94.97;90.43;;;;;;;21.45;100.00;101409.66;5075959;28;20085;-73
2022/08/26 01:56:57;;;;;;;97.65;92.90;;;;;;;21.50;100.00;101409.88;5078057;28;20480;-73
2022/08/26 01:59:24;;;;;;;84.32;80.43;;;;;;;21.50;100.00;101410.69;5081207;28;20038;-73
2022/08/26 02:01:50;;;;;;;91.30;86.97;;;;;;;21.46;100.00;101408.63;5067671;28;20033;-73
2022/08/26 02:04:15;;;;;;;82.50;78.22;;;;;;;21.51;100.00;101415.03;5068393;28;20032;-73
2022/08/26 02:06:42;;;;;;;91.95;87.43;;;;;;;21.53;100.00;101420.19;5074577;28;20024;-73
2022/08/26 02:09:08;;;;;;;93.03;88.43;;;;;;;21.45;100.00;101423.06;5079788;28;20036;-73
2022/08/26 02:11:33;;;;;;;86.53;82.68;;;;;;;21.47;100.00;101426.38;5082936;28;20551;-73
2022/08/26 02:14:04;;;;;;;79.63;75.85;;;;;;;21.48;100.00;101422.69;5081265;28;20476;-72
2022/08/26 02:16:38;;;;;;;88.47;84.30;;;;;;;21.52;100.00;101418.56;5089108;28;20059;-73
2022/08/26 02:19:07;;;;;;;89.47;84.63;;;;;;;21.52;100.00;101419.38;5075606;28;20028;-73
2022/08/26 02:21:33;;;;;;;81.95;77.82;;;;;;;21.56;100.00;101417.09;5074579;28;20031;-73
2022/08/26 02:24:12;;;;;;;87.38;83.10;;;;;;;21.49;100.00;101409.06;5086899;28;20045;-73
2022/08/26 02:26:37;;;;;;;95.43;90.43;;;;;;;21.55;100.00;101420.81;5085382;28;20071;-73
2022/08/26 02:29:18;;;;;;;90.78;86.15;;;;;;;21.52;100.00;101424.75;5079355;28;20502;-73
2022/08/26 02:31:44;;;;;;;101.70;96.30;;;;;;;21.47;100.00;101421.00;5081012;28;20031;-73
2022/08/26 02:34:15;;;;;;;90.13;85.55;;;;;;;21.42;100.00;101418.13;5080064;28;20086;-72
2022/08/26 02:36:41;;;;;;;101.72;96.45;;;;;;;21.42;100.00;101428.88;5075653;28;20047;-72
2022/08/26 02:39:07;;;;;;;105.90;100.50;;;;;;;21.37;100.00;101430.28;5081782;28;20127;-72
2022/08/26 02:41:33;;;;;;;95.75;90.80;;;;;;;21.36;100.00;101428.66;5078219;28;20033;-72
2022/08/26 02:43:59;;;;;;;109.22;103.65;;;;;;;21.36;100.00;101433.16;5080551;28;20062;-72
2022/08/26 02:46:25;;;;;;;100.03;95.22;;;;;;;21.32;100.00;101427.41;5082760;28;20115;-72
2022/08/26 02:48:51;;;;;;;102.25;97.07;;;;;;;21.34;100.00;101428.03;5081181;28;20024;-73
2022/08/26 02:51:16;;;;;;;100.80;95.57;;;;;;;21.37;100.00;101424.09;5087115;28;20085;-73
2022/08/26 02:53:42;;;;;;;96.35;91.07;;;;;;;21.40;100.00;101428.22;5082335;28;20032;-73
2022/08/26 02:56:08;;;;;;;97.43;92.78;;;;;;;21.39;100.00;101429.28;5080507;28;20030;-73
2022/08/26 02:58:33;;;;;;;95.70;90.85;;;;;;;21.41;100.00;101428.06;5078814;28;20035;-73
2022/08/26 03:00:59;;;;;;;101.95;96.80;;;;;;;21.42;100.00;101418.97;5079968;28;20500;-73
2022/08/26 03:03:24;;;;;;;93.38;88.40;;;;;;;21.46;100.00;101422.06;5070341;28;20028;-73
2022/08/26 03:05:51;;;;;;;93.22;88.82;;;;;;;21.44;100.00;101422.25;5085880;28;20027;-73
2022/08/26 03:08:16;;;;;;;91.68;87.07;;;;;;;21.44;100.00;101421.44;5085807;28;20081;-73
2022/08/26 03:10:42;;;;;;;99.28;94.43;;;;;;;21.42;100.00;101420.81;5065749;28;20419;-73
2022/08/26 03:13:07;;;;;;;106.53;100.70;;;;;;;21.34;100.00;101411.09;5075682;28;20542;-73
2022/08/26 03:15:32;;;;;;;103.38;97.57;;;;;;;21.35;100.00;101418.94;5076014;28;20400;-73
2022/08/26 03:17:58;;;;;;;96.47;91.13;;;;;;;21.36;100.00;101409.00;5082756;28;20029;-73
2022/08/26 03:20:24;;;;;;;87.53;83.18;;;;;;;21.43;100.00;101422.50;5083141;28;20032;-72
2022/08/26 03:22:52;;;;;;;94.45;89.70;;;;;;;21.44;100.00;101421.44;5079439;28;20028;-72
2022/08/26 03:25:19;;;;;;;98.25;93.20;;;;;;;21.45;100.00;101421.25;5078593;28;20047;-72
2022/08/26 03:27:45;;;;;;;92.95;88.18;;;;;;;21.33;100.00;101415.63;5083541;28;20039;-72
2022/08/26 03:32:56;;;;;;;90.90;86.40;;;;;;;21.45;100.00;101406.97;5079572;28;20451;-72
2022/08/26 03:35:22;;;;;;;91.22;86.80;;;;;;;21.43;100.00;101417.13;5086008;28;20021;-72
2022/08/26 03:37:47;;;;;;;93.45;88.22;;;;;;;21.35;100.00;101407.38;5071426;28;20052;-72
2022/08/26 03:40:13;;;;;;;89.88;85.15;;;;;;;21.39;100.00;101434.66;5082528;28;20449;-72
2022/08/26 03:42:40;;;;;;;88.13;83.65;;;;;;;21.41;100.00;101424.53;5083323;28;20032;-72
2022/08/26 03:45:09;;;;;;;93.28;88.72;;;;;;;21.40;100.00;101428.22;5082894;28;20028;-72
2022/08/26 03:47:34;;;;;;;86.35;81.70;;;;;;;21.41;100.00;101437.94;5078154;28;20016;-72
2022/08/26 03:50:00;;;;;;;85.85;81.57;;;;;;;21.40;100.00;101434.41;5073979;28;20051;-73
2022/08/26 03:52:26;;;;;;;80.50;76.38;;;;;;;21.34;100.00;101429.91;5080404;28;20028;-72
2022/08/26 03:54:51;;;;;;;79.20;75.40;;;;;;;21.35;100.00;101431.53;5079832;28;20447;-73
2022/08/26 03:57:16;;;;;;;85.10;81.00;;;;;;;21.28;100.00;101423.47;5081344;28;20024;-72
2022/08/26 03:59:42;;;;;;;80.97;76.50;;;;;;;21.22;100.00;101410.88;5038150;28;20035;-73
2022/08/26 04:02:07;;;;;;;88.10;83.78;;;;;;;21.37;100.00;101442.91;5080261;28;20202;-72
2022/08/26 04:04:33;;;;;;;88.22;83.00;;;;;;;21.32;100.00;101445.38;5074323;28;20170;-72
2022/08/26 04:06:59;;;;;;;80.55;76.45;;;;;;;21.29;100.00;101443.09;5074873;28;20500;-72
2022/08/26 04:09:26;;;;;;;87.50;83.07;;;;;;;21.16;100.00;101419.75;5083730;28;20040;-72
2022/08/26 04:11:52;;;;;;;88.97;84.50;;;;;;;21.25;100.00;101445.38;5063244;28;20032;-72
2022/08/26 04:14:22;;;;;;;87.53;83.03;;;;;;;21.17;100.00;101437.53;5080580;28;20027;-72
2022/08/26 04:16:49;;;;;;;82.20;78.00;;;;;;;21.21;100.00;101437.94;5081449;28;20036;-72
2022/08/26 04:19:16;;;;;;;88.00;83.38;;;;;;;21.22;100.00;101435.03;5078025;28;20033;-72
2022/08/26 04:21:43;;;;;;;87.03;82.85;;;;;;;21.23;100.00;101431.34;5084307;28;20028;-72
2022/08/26 04:24:11;;;;;;;82.45;78.55;;;;;;;21.19;100.00;101424.72;5072955;28;20154;-72
2022/08/26 04:26:38;;;;;;;75.00;71.10;;;;;;;21.17;100.00;101418.75;5077316;28;20059;-72
2022/08/26 04:29:07;;;;;;;82.40;78.20;;;;;;;21.24;100.00;101414.19;5076823;28;20028;-72
2022/08/26 04:31:34;;;;;;;86.47;81.78;;;;;;;21.17;100.00;101410.69;5080341;28;20456;-72
2022/08/26 04:34:00;;;;;;;86.88;82.57;;;;;;;21.26;100.00;101425.53;5075353;28;20031;-72
2022/08/26 04:36:25;;;;;;;79.70;75.72;;;;;;;21.27;100.00;101424.50;5076422;28;20400;-72
2022/08/26 04:38:51;;;;;;;85.30;81.13;;;;;;;21.29;100.00;101429.66;5078998;28;20032;-73
2022/08/26 04:41:18;;;;;;;84.90;80.60;;;;;;;21.24;100.00;101422.25;5073363;28;20105;-71
2022/08/26 04:43:45;;;;;;;80.72;76.72;;;;;;;21.25;100.00;101433.81;5075856;28;20542;-72
2022/08/26 04:46:15;;;;;;;79.40;75.75;;;;;;;21.28;100.00;101428.84;5079058;28;20073;-71
2022/08/26 04:48:41;;;;;;;87.50;83.32;;;;;;;21.23;100.00;101420.59;5078379;28;20020;-72
2022/08/26 04:51:06;;;;;;;88.85;84.53;;;;;;;21.31;100.00;101423.06;5075294;28;20020;-72
2022/08/26 04:53:32;;;;;;;89.88;85.30;;;;;;;21.34;100.00;101432.59;5073855;28;20472;-72
2022/08/26 04:55:57;;;;;;;78.07;74.10;;;;;;;21.31;100.00;101431.13;5078739;28;20044;-72
2022/08/26 04:58:23;;;;;;;82.15;78.32;;;;;;;21.36;100.00;101439.41;5072501;28;20025;-72
2022/08/26 05:00:51;;;;;;;86.78;82.25;;;;;;;21.38;100.00;101444.53;5079859;28;20032;-72
2022/08/26 05:03:18;;;;;;;85.18;79.68;;;;;;;21.39;100.00;101443.50;5074855;28;20112;-72
2022/08/26 05:05:45;;;;;;;81.32;76.90;;;;;;;21.32;100.00;101430.09;5075254;28;20044;-72
2022/08/26 05:08:13;;;;;;;82.85;78.90;;;;;;;21.33;100.00;101431.72;5079287;28;20388;-72
2022/08/26 05:10:44;;;;;;;82.20;77.72;;;;;;;21.41;100.00;101444.16;5076688;28;20087;-72
2022/08/26 05:13:12;;;;;;;81.03;76.97;;;;;;;21.39;100.00;101445.38;5073316;28;20043;-73
2022/08/26 05:15:37;;;;;;;79.35;75.25;;;;;;;21.41;100.00;101443.31;5077293;28;20033;-73
2022/08/26 05:18:05;;;;;;;76.70;72.57;;;;;;;21.38;100.00;101439.16;5079702;28;20026;-73
2022/08/26 05:20:33;;;;;;;81.68;77.57;;;;;;;21.39;100.00;101434.66;5076973;28;20107;-73
2022/08/26 05:22:59;;;;;;;82.72;78.55;;;;;;;21.40;100.00;101438.97;5059505;28;20544;-73
2022/08/26 05:25:29;;;;;;;78.45;74.53;;;;;;;21.41;100.00;101437.94;5076621;28;20067;-73
2022/08/26 05:27:54;;;;;;;87.45;82.18;;;;;;;21.35;100.00;101437.72;5069174;28;20020;-72
2022/08/26 05:30:19;;;;;;;91.05;86.60;;;;;;;21.33;100.00;101445.16;5075440;28;20027;-72
2022/08/26 05:32:49;;;;;;;91.20;86.63;;;;;;;21.24;100.00;101432.97;5073913;28;20056;-72
2022/08/26 05:35:16;;;;;;;89.18;84.82;;;;;;;21.31;100.00;101449.91;5077677;28;20025;-73
2022/08/26 05:37:42;;;;;;;86.25;81.72;;;;;;;21.32;100.00;101446.22;5072722;28;20040;-73
2022/08/26 05:40:08;;;;;;;83.05;78.97;;;;;;;21.30;100.00;101445.59;5058282;28;20029;-73
2022/08/26 05:42:34;;;;;;;82.63;78.10;;;;;;;21.19;100.00;101430.09;5073551;28;20098;-73
2022/08/26 05:44:59;;;;;;;82.97;78.97;;;;;;;21.27;100.00;101447.84;5075835;28;20060;-73
2022/08/26 05:47:25;;;;;;;78.07;74.35;;;;;;;21.23;100.00;101452.81;5077687;28;20115;-72
2022/08/26 05:49:51;;;;;;;88.10;83.78;;;;;;;21.16;100.00;101446.59;5071772;28;20021;-72
2022/08/26 05:52:17;;;;;;;87.15;83.20;;;;;;;21.19;100.00;101462.31;5064882;28;20043;-73
2022/08/26 05:54:43;;;;;;;89.03;84.82;;;;;;;21.18;100.00;101460.66;5070911;28;20111;-73
2022/08/26 05:57:10;;;;;;;90.63;85.80;;;;;;;21.02;100.00;101450.31;5071003;28;20834;-73
2022/08/26 05:59:37;;;;;;;94.38;89.45;;;;;;;21.06;100.00;101452.38;5069917;28;20365;-73
2022/08/26 06:02:03;;;;;;;92.13;87.55;;;;;;;21.08;100.00;101447.63;5053275;28;20391;-73
2022/08/26 06:04:28;;;;;;;86.30;82.22;;;;;;;21.22;100.00;101448.47;5055381;28;20123;-73
2022/08/26 06:06:54;;;;;;;85.38;81.07;;;;;;;21.32;100.00;101451.56;5073237;28;20033;-73
2022/08/26 06:09:19;;;;;;;83.10;79.05;;;;;;;21.41;100.00;101464.81;5074550;28;20048;-73
2022/08/26 06:11:44;;;;;;;88.35;84.32;;;;;;;21.36;100.00;101455.50;5068575;28;20542;-73
2022/08/26 06:14:10;;;;;;;88.78;84.05;;;;;;;21.45;100.00;101477.63;5053837;28;20036;-73
2022/08/26 06:16:38;;;;;;;84.05;80.05;;;;;;;21.50;100.00;101469.78;5082378;28;20032;-73
2022/08/26 06:19:06;;;;;;;84.30;80.25;;;;;;;21.61;100.00;101478.25;5080405;28;20016;-72
2022/08/26 06:21:34;;;;;;;81.10;77.30;;;;;;;21.64;100.00;101481.31;5084587;28;20161;-72
2022/08/26 06:26:57;;;;;;;79.45;75.85;;;;;;;21.54;100.00;101479.06;5075495;28;20536;-73
2022/08/26 06:29:25;;;;;;;79.65;75.60;;;;;;;21.40;100.00;101463.13;5079703;28;20016;-73
2022/08/26 06:31:55;;;;;;;76.45;72.72;;;;;;;21.61;100.00;101476.38;5075924;28;20032;-73
2022/08/26 06:34:21;;;;;;;77.93;74.18;;;;;;;21.59;100.00;101465.00;5071043;28;20024;-73
2022/08/26 06:36:48;;;;;;;73.13;69.70;;;;;;;21.64;100.00;101483.19;5060689;28;20039;-72
2022/08/26 06:39:16;;;;;;;74.35;70.75;;;;;;;21.57;100.00;101483.19;5073425;28;20140;-72
2022/08/26 06:41:43;;;;;;;76.03;72.60;;;;;;;21.73;100.00;101493.53;5077941;28;20025;-72
2022/08/26 06:44:10;;;;;;;73.47;69.00;;;;;;;21.80;100.00;101506.09;5073492;28;20040;-73
2022/08/26 06:46:36;;;;;;;73.60;70.28;;;;;;;21.85;100.00;101509.00;5074523;28;20062;-73
2022/08/26 06:49:02;;;;;;;71.30;67.63;;;;;;;21.88;100.00;101508.59;5078878;28;20348;-73
2022/08/26 06:51:31;;;;;;;73.65;69.85;;;;;;;21.88;100.00;101503.22;5075227;28;20032;-74
2022/08/26 06:53:58;;;;;;;75.65;72.03;;;;;;;22.03;100.00;101511.88;5075928;28;20160;-74
2022/08/26 06:56:27;;;;;;;74.95;71.28;;;;;;;22.12;100.00;101499.88;5069729;28;20188;-73
2022/08/26 06:58:53;;;;;;;76.70;73.05;;;;;;;22.15;100.00;101512.88;5076716;28;20024;-73
2022/08/26 07:01:27;;;;;;;73.10;69.65;;;;;;;22.16;100.00;101502.94;5072135;28;20036;-73
2022/08/26 07:03:54;;;;;;;79.22;74.88;;;;;;;22.13;100.00;101498.81;5054904;28;20039;-74
2022/08/26 07:06:20;;;;;;;70.72;67.15;;;;;;;22.19;99.78;101478.34;5064417;28;20028;-73
2022/08/26 07:08:51;;;;;;;71.63;68.13;;;;;;;22.29;99.07;101488.66;5065562;28;20032;-73
2022/08/26 07:11:18;;;;;;;70.32;66.78;;;;;;;22.32;99.47;101490.91;5072676;28;20032;-73
2022/08/26 07:13:44;;;;;;;67.90;64.15;;;;;;;22.39;98.81;101489.06;5072162;28;20042;-73
2022/08/26 07:16:13;;;;;;;68.45;65.05;;;;;;;22.41;98.52;101492.34;5073170;28;20024;-73
2022/08/26 07:18:41;;;;;;;59.88;56.80;;;;;;;22.42;97.95;101498.56;5078888;28;20036;-73
2022/08/26 07:21:09;;;;;;;59.50;56.42;;;;;;;22.42;98.26;101496.69;5075366;28;20388;-74
2022/08/26 07:23:35;;;;;;;58.55;55.50;;;;;;;22.25;98.43;101511.63;5076288;28;20032;-74
2022/08/26 07:26:06;;;;;;;60.22;57.40;;;;;;;22.16;98.64;101513.69;5073123;28;20550;-72
2022/08/26 07:28:31;;;;;;;;;;;;;;;22.22;98.62;101526.34;5074959;28;20024;-72
2022/08/26 07:30:57;;;;;;;58.72;55.72;;;;;;;22.12;98.03;101523.22;5072682;28;19920;-72
2022/08/26 07:33:22;;;;;;;59.78;56.65;;;;;;;22.22;97.79;101520.09;5076194;28;20103;-72
2022/08/26 07:35:48;;;;;;;57.63;54.63;;;;;;;22.25;97.85;101525.09;5060222;28;20028;-72
2022/08/26 07:38:13;;;;;;;57.60;55.00;;;;;;;22.30;97.47;101531.50;5076115;28;20472;-74
2022/08/26 07:40:39;;;;;;;60.35;57.03;;;;;;;22.30;97.82;101541.44;5077644;28;20442;-73
2022/08/26 07:43:06;;;;;;;52.50;49.78;;;;;;;22.24;96.99;101534.19;5074025;28;20031;-73
2022/08/26 07:45:32;;;;;;;50.38;47.58;;;;;;;22.28;96.39;101540.81;5076883;28;20027;-73
2022/08/26 07:47:58;;;;;;;48.97;46.38;;;;;;;22.29;96.00;101547.81;5073457;28;20499;-73
2022/08/26 07:50:23;;;;;;;51.13;48.55;;;;;;;22.35;96.45;101549.69;5077436;28;20028;-73
2022/08/26 07:52:49;;;;;;;49.08;46.83;;;;;;;22.28;96.20;101551.56;5076196;28;20047;-73
2022/08/26 07:55:14;;;;;;;50.13;46.78;;;;;;;22.28;96.68;101562.31;5070086;28;20039;-73
2022/08/26 07:57:40;;;;;;;51.67;49.08;;;;;;;22.25;96.69;101560.84;5072309;28;20060;-73
2022/08/26 08:00:10;;;;;;;53.10;50.60;;;;;;;22.21;97.01;101550.69;5070713;28;20028;-73
2022/08/26 08:02:35;;;;;;;53.92;50.72;;;;;;;22.21;97.34;101556.94;5076789;28;20445;-73
2022/08/26 08:05:00;;;;;;;52.40;49.83;;;;;;;22.34;97.38;101566.84;5072870;28;20178;-73
2022/08/26 08:07:27;;;;;;;53.00;50.30;;;;;;;22.40;96.49;101566.00;5073378;28;20619;-73
2022/08/26 08:09:54;;;;;;;51.47;48.88;;;;;;;22.43;96.00;101565.59;5073418;28;20032;-73
2022/08/26 08:12:20;;;;;;;48.30;45.95;;;;;;;22.36;95.55;101556.69;5074576;28;20078;-73
2022/08/26 08:14:46;;;;;;;48.38;45.97;;;;;;;22.40;95.53;101568.69;5073044;28;20035;-73
2022/08/26 08:17:13;;;;;;;47.53;45.22;;;;;;;22.36;95.20;101570.13;5068330;28;20459;-73
2022/08/26 08:19:39;;;;;;;45.47;43.35;;;;;;;22.44;95.02;101556.47;5068409;28;20026;-73
2022/08/26 08:22:04;;;;;;;47.38;44.88;;;;;;;22.52;94.40;101558.13;5070198;28;20028;-73
2022/08/26 08:24:32;;;;;;;47.72;45.70;;;;;;;22.74;93.50;101564.03;5070327;28;20043;-73
2022/08/26 08:26:59;;;;;;;47.83;45.63;;;;;;;22.99;92.32;101575.72;5070437;28;20588;-73
2022/08/26 08:29:25;;;;;;;47.88;45.65;;;;;;;23.09;90.03;101563.69;5067999;28;20029;-73
2022/08/26 08:31:51;;;;;;;42.33;40.17;;;;;;;23.23;88.70;101570.63;5072889;28;20028;-73
2022/08/26 08:34:17;;;;;;;43.00;40.95;;;;;;;23.36;88.36;101575.94;5071941;28;20503;-73
2022/08/26 08:36:45;;;;;;;47.72;45.72;;;;;;;23.40;87.73;101579.03;5069817;28;20032;-74
2022/08/26 08:39:10;;;;;;;49.58;47.38;;;;;;;23.40;88.22;101577.16;5069089;28;20118;-74
2022/08/26 08:42:09;;;;;;;49.00;46.95;;;;;;;23.46;88.15;101577.34;5075937;28;20033;-74
2022/08/26 08:44:39;;;;;;;46.90;44.72;;;;;;;23.75;87.12;101579.41;5060907;28;20020;-72
2022/08/26 08:47:24;;;;;;;43.03;41.05;;;;;;;23.86;85.78;101575.16;5077595;28;20099;-76
2022/08/26 08:49:53;;;;;;;46.33;44.15;;;;;;;24.01;84.99;101582.91;5074580;28;20093;-73
2022/08/26 08:52:28;;;;;;;45.35;43.40;;;;;;;23.94;84.90;101584.88;5062254;28;20027;-72
2022/08/26 08:54:54;;;;;;;51.20;48.97;;;;;;;24.07;84.92;101582.03;5074662;28;20585;-70
2022/08/26 08:57:45;;;;;;;47.80;45.70;;;;;;;24.03;84.74;101576.25;5070255;28;20055;-71
2022/08/26 09:00:16;;;;;;;54.72;52.42;;;;;;;23.90;84.66;101580.97;5073141;28;20328;-72
2022/08/26 09:02:56;;;;;;;53.88;51.33;;;;;;;23.62;85.84;101563.31;5072813;28;20021;-76
2022/08/26 09:05:23;;;;;;;61.70;58.63;;;;;;;23.64;85.37;101574.69;5077082;28;20096;-77
2022/08/26 09:07:58;;;;;;;56.72;54.05;;;;;;;23.75;84.92;101568.63;5072672;28;20030;-75
2022/08/26 09:10:35;;;;;;;58.22;55.65;;;;;;;23.67;85.54;101573.44;5072802;28;20024;-75
2022/08/26 09:13:05;;;;;;;57.03;54.60;;;;;;;23.72;86.45;101574.44;5074054;28;20484;-75
2022/08/26 09:15:45;;;;;;;60.83;58.35;;;;;;;23.80;85.66;101574.19;5072275;28;20024;-75
2022/08/26 09:18:34;;;;;;;59.40;56.70;;;;;;;23.85;84.97;101578.94;5067039;28;20127;-75
2022/08/26 09:21:03;;;;;;;56.30;53.88;;;;;;;23.92;84.72;101576.16;5070778;28;20031;-77
2022/08/26 09:23:31;;;;;;;53.03;50.67;;;;;;;23.92;85.19;101579.69;5068430;28;20116;-76
2022/08/26 09:25:59;;;;;;;57.45;55.05;;;;;;;23.84;86.16;101581.84;5070618;28;20469;-75
2022/08/26 09:28:28;;;;;;;57.33;54.97;;;;;;;23.68;86.25;101588.56;5065815;28;20451;-75
2022/08/26 09:31:18;;;;;;;58.63;56.00;;;;;;;23.60;85.83;101593.19;5067873;28;20522;-75
2022/08/26 09:33:43;;;;;;;56.38;53.88;;;;;;;23.24;86.79;101588.44;5069866;28;20016;-74
2022/08/26 09:36:36;;;;;;;64.57;61.70;;;;;;;23.27;86.68;101582.63;5067987;28;20059;-74
2022/08/26 09:39:02;;;;;;;55.50;53.15;;;;;;;23.30;86.39;101582.22;5070643;28;20056;-74
2022/08/26 09:41:31;;;;;;;52.75;50.47;;;;;;;23.25;86.40;101581.19;5069433;28;20028;-74
2022/08/26 09:44:15;;;;;;;53.15;51.05;;;;;;;23.26;85.51;101583.69;5055105;28;20484;-74
2022/08/26 09:46:53;;;;;;;60.28;57.63;;;;;;;23.16;85.88;101584.13;5068867;28;20077;-74
2022/08/26 09:49:39;;;;;;;61.13;58.67;;;;;;;23.13;85.51;101586.44;5066948;28;20055;-76
2022/08/26 09:52:22;;;;;;;55.90;53.72;;;;;;;23.18;85.70;101592.00;5066274;28;20108;-75
2022/08/26 09:55:12;;;;;;;53.78;51.63;;;;;;;23.03;86.00;101603.06;5078613;28;20028;-75
2022/08/26 09:57:52;;;;;;;50.88;48.58;;;;;;;23.10;85.57;101603.03;5072278;28;20467;-75
2022/08/26 10:00:36;;;;;;;58.85;56.33;;;;;;;23.00;85.62;101596.22;5062097;28;20074;-74
2022/08/26 10:03:07;;;;;;;57.63;54.97;;;;;;;23.12;85.19;101606.31;5081947;28;20051;-75
2022/08/26 10:05:43;;;;;;;51.10;48.80;;;;;;;23.20;85.51;101603.38;5073334;28;20028;-70
2022/08/26 10:08:21;;;;;;;50.28;48.08;;;;;;;23.11;85.64;101602.00;5082913;28;20114;-72
2022/08/26 10:10:46;;;;;;;53.55;51.35;;;;;;;23.04;86.07;101611.94;5074246;28;20105;-73
2022/08/26 10:13:24;;;;;;;61.30;58.45;;;;;;;22.94;86.13;101591.66;5076827;28;20032;-73
2022/08/26 10:16:05;;;;;;;52.35;49.88;;;;;;;23.13;85.40;101608.81;5086362;28;20032;-73
2022/08/26 10:19:16;;;;;;;52.45;50.25;;;;;;;23.09;86.97;101606.75;5071312;28;20025;-73
2022/08/26 10:21:51;;;;;;;46.38;43.83;;;;;;;23.13;86.35;101602.59;5066123;28;20063;-74
2022/08/26 10:24:29;;;;;;;48.05;45.75;;;;;;;23.30;86.28;101587.59;5073347;28;20027;-74
2022/08/26 10:27:01;;;;;;;51.50;49.22;;;;;;;23.90;84.21;101605.22;5064477;28;20036;-74
2022/08/26 10:29:44;;;;;;;54.75;52.05;;;;;;;24.08;82.21;101605.25;5070833;28;20186;-72
2022/08/26 10:32:34;;;;;;;51.75;49.42;;;;;;;24.27;82.01;101619.59;5080282;28;20722;-74
2022/08/26 10:35:01;;;;;;;54.53;52.07;;;;;;;24.09;81.61;101600.72;5082791;28;20082;-74
2022/08/26 10:37:35;;;;;;;61.15;58.60;;;;;;;24.13;81.25;101608.13;5077190;28;20602;-73
2022/08/26 10:40:09;;;;;;;54.40;51.95;;;;;;;24.22;81.01;101612.19;5076981;28;20388;-73
2022/08/26 10:42:45;;;;;;;62.33;59.40;;;;;;;24.28;80.83;101617.72;5077418;28;20028;-73
2022/08/26 10:45:18;;;;;;;62.65;59.72;;;;;;;24.26;81.32;101617.13;5073478;28;20074;-73
2022/08/26 10:48:06;;;;;;;64.88;61.90;;;;;;;24.23;81.35;101621.09;5076584;28;20043;-73
2022/08/26 10:50:40;;;;;;;71.25;68.00;;;;;;;24.10;82.05;101619.34;5080482;28;20054;-73
2022/08/26 10:53:23;;;;;;;68.03;65.32;;;;;;;24.01;81.94;101626.06;5070296;28;20454;-73
2022/08/26 10:56:07;;;;;;;74.10;71.13;;;;;;;23.69;83.48;101617.16;5075483;28;20544;-73
2022/08/26 10:59:03;;;;;;;72.50;69.68;;;;;;;23.58;83.48;101622.22;5075674;28;20370;-73
2022/08/26 11:02:07;;;;;;;71.82;68.97;;;;;;;23.61;83.89;101621.78;5073066;28;20032;-73
2022/08/26 11:04:39;;;;;;;68.70;65.82;;;;;;;23.69;83.32;101625.25;5075779;28;20116;-73
2022/08/26 11:07:37;;;;;;;75.85;72.28;;;;;;;23.68;83.57;101629.00;5076160;28;20094;-73
2022/08/26 11:10:15;;;;;;;63.08;60.35;;;;;;;23.71;84.17;101626.66;5074364;28;20032;-73
2022/08/26 11:12:40;;;;;;;65.55;62.78;;;;;;;23.66;83.42;101629.19;5074801;28;20388;-74
2022/08/26 11:15:08;;;;;;;70.63;67.45;;;;;;;23.56;84.11;101634.25;5081477;28;20027;-74
2022/08/26 11:17:43;;;;;;;77.18;73.90;;;;;;;23.44;84.62;101622.53;5072865;28;20121;-74
2022/08/26 11:20:10;;;;;;;62.33;59.70;;;;;;;23.52;84.56;101624.97;5074160;28;20028;-74